createdAt,value
2023-12-15T00:01:31.499Z,83.19
2023-12-15T00:03:33.238Z,83.09
2023-12-15T00:05:35.143Z,82.92
2023-12-15T00:07:37.106Z,83.17
2023-12-15T00:09:39.094Z,83.09
2023-12-15T00:11:40.870Z,83.00
2023-12-15T00:13:42.894Z,82.87
2023-12-15T00:15:44.662Z,82.89
2023-12-15T00:17:46.510Z,83.11
2023-12-15T00:19:48.430Z,82.81
2023-12-15T00:21:50.139Z,82.81
2023-12-15T00:23:51.833Z,82.89
2023-12-15T00:25:53.706Z,82.83
2023-12-15T00:27:55.437Z,83.04
2023-12-15T00:29:57.191Z,83.02
2023-12-15T00:31:58.953Z,82.86
2023-12-15T00:34:00.765Z,83.01
2023-12-15T00:36:02.594Z,82.94
2023-12-15T00:38:04.414Z,83.01
2023-12-15T00:40:06.797Z,83.18
2023-12-15T00:42:08.519Z,83.05
2023-12-15T00:44:10.259Z,83.10
2023-12-15T00:46:11.991Z,83.01
2023-12-15T00:48:13.800Z,83.18
2023-12-15T00:50:15.740Z,83.01
2023-12-15T00:52:17.534Z,83.04
2023-12-15T00:54:19.238Z,82.91
2023-12-15T00:56:20.994Z,83.11
2023-12-15T00:58:22.796Z,82.82
2023-12-15T01:00:24.483Z,83.30
2023-12-15T01:02:26.339Z,83.20
2023-12-15T01:04:28.054Z,82.83
2023-12-15T01:06:30.731Z,83.11
2023-12-15T01:08:32.522Z,83.12
2023-12-15T01:10:34.468Z,83.09
2023-12-15T01:12:36.210Z,83.02
2023-12-15T01:14:38.043Z,83.10
2023-12-15T01:16:50.598Z,83.03
2023-12-15T01:18:52.419Z,83.13
2023-12-15T01:20:54.180Z,83.43
2023-12-15T01:22:55.964Z,83.50
2023-12-15T01:24:57.732Z,83.50
2023-12-15T01:26:59.857Z,83.53
2023-12-15T01:29:01.581Z,83.64
2023-12-15T01:31:04.258Z,83.87
2023-12-15T01:33:06.274Z,84.33
2023-12-15T01:35:08.497Z,84.19
2023-12-15T01:37:10.482Z,84.21
2023-12-15T01:39:12.230Z,84.46
2023-12-15T01:41:14.003Z,84.80
2023-12-15T01:43:15.737Z,84.81
2023-12-15T01:45:17.547Z,84.75
2023-12-15T01:47:19.774Z,84.82
2023-12-15T01:49:21.817Z,85.08
2023-12-15T01:51:23.668Z,85.16
2023-12-15T01:53:25.519Z,85.15
2023-12-15T01:55:27.261Z,85.34
2023-12-15T01:57:28.959Z,85.43
2023-12-15T01:59:48.241Z,85.50
2023-12-15T02:01:49.984Z,85.27
2023-12-15T02:03:51.793Z,85.43
2023-12-15T02:05:53.800Z,85.44
2023-12-15T02:07:55.975Z,85.65
2023-12-15T02:09:59.640Z,85.71
2023-12-15T02:12:01.572Z,85.80
2023-12-15T02:14:03.372Z,85.72
2023-12-15T02:16:05.560Z,85.63
2023-12-15T02:18:07.398Z,85.87
2023-12-15T02:20:09.670Z,85.91
2023-12-15T02:22:11.455Z,85.95
2023-12-15T02:24:13.292Z,86.03
2023-12-15T02:26:15.095Z,85.77
2023-12-15T02:28:16.907Z,86.17
2023-12-15T02:30:18.649Z,85.96
2023-12-15T02:32:20.398Z,86.26
2023-12-15T02:34:22.269Z,85.96
2023-12-15T02:36:25.201Z,86.17
2023-12-15T02:38:26.944Z,86.39
2023-12-15T02:40:28.669Z,86.15
2023-12-15T02:42:30.386Z,86.54
2023-12-15T02:44:32.464Z,86.36
2023-12-15T02:46:37.892Z,86.49
2023-12-15T02:48:39.809Z,86.37
2023-12-15T02:50:41.510Z,86.63
2023-12-15T02:52:43.235Z,86.47
2023-12-15T02:54:44.939Z,86.77
2023-12-15T02:56:46.652Z,86.74
2023-12-15T02:58:48.374Z,86.54
2023-12-15T03:00:50.214Z,86.77
2023-12-15T03:02:51.908Z,86.79
2023-12-15T03:04:53.619Z,86.84
2023-12-15T03:06:56.136Z,86.77
2023-12-15T03:08:57.854Z,86.62
2023-12-15T03:10:59.668Z,86.85
2023-12-15T03:13:01.371Z,86.88
2023-12-15T03:15:03.145Z,86.72
2023-12-15T03:17:05.912Z,86.69
2023-12-15T03:19:07.627Z,86.71
2023-12-15T03:21:09.328Z,86.88
2023-12-15T03:23:11.086Z,86.83
2023-12-15T03:25:12.769Z,86.88
2023-12-15T03:27:14.512Z,86.76
2023-12-15T03:29:16.657Z,86.93
2023-12-15T03:31:18.392Z,87.04
2023-12-15T03:33:20.258Z,87.00
2023-12-15T03:35:22.029Z,86.97
2023-12-15T03:37:23.754Z,87.05
2023-12-15T03:39:25.587Z,86.90
2023-12-15T03:41:27.337Z,87.07
2023-12-15T03:43:29.137Z,87.18
2023-12-15T03:45:30.845Z,87.20
2023-12-15T03:47:33.047Z,87.28
2023-12-15T03:49:36.125Z,87.27
2023-12-15T03:51:37.827Z,87.54
2023-12-15T03:53:39.658Z,87.35
2023-12-15T03:55:41.434Z,87.28
2023-12-15T03:57:43.152Z,87.42
2023-12-15T03:59:44.957Z,87.33
2023-12-15T04:01:46.648Z,87.36
2023-12-15T04:03:48.991Z,87.31
2023-12-15T04:05:50.841Z,87.41
2023-12-15T04:07:52.607Z,87.57
2023-12-15T04:09:54.368Z,87.51
2023-12-15T04:11:56.137Z,87.49
2023-12-15T04:13:57.861Z,87.69
2023-12-15T04:16:00.474Z,87.58
2023-12-15T04:18:06.214Z,87.72
2023-12-15T04:20:11.829Z,87.62
2023-12-15T04:22:13.766Z,87.95
2023-12-15T04:24:15.502Z,87.68
2023-12-15T04:26:17.615Z,87.90
2023-12-15T04:28:19.330Z,87.71
2023-12-15T04:30:21.054Z,87.95
2023-12-15T04:32:22.801Z,87.70
2023-12-15T04:34:24.579Z,87.94
2023-12-15T04:36:28.196Z,87.96
2023-12-15T04:38:30.071Z,88.24
2023-12-15T04:40:31.948Z,88.11
2023-12-15T04:42:33.722Z,88.12
2023-12-15T04:44:37.322Z,88.38
2023-12-15T04:46:39.126Z,88.10
2023-12-15T04:48:41.092Z,88.42
2023-12-15T04:50:43.400Z,88.36
2023-12-15T04:52:45.472Z,88.30
2023-12-15T04:54:47.194Z,88.35
2023-12-15T04:56:48.913Z,88.43
2023-12-15T04:58:51.201Z,88.30
2023-12-15T05:00:52.937Z,88.36
2023-12-15T05:02:54.675Z,88.36
2023-12-15T05:04:56.501Z,88.33
2023-12-15T05:06:58.213Z,88.33
2023-12-15T05:09:00.067Z,88.41
2023-12-15T05:11:01.776Z,88.38
2023-12-15T05:13:03.762Z,88.26
2023-12-15T05:15:06.001Z,88.59
2023-12-15T05:17:07.711Z,88.63
2023-12-15T05:19:09.546Z,88.41
2023-12-15T05:21:11.292Z,88.55
2023-12-15T05:23:15.475Z,88.23
2023-12-15T05:25:17.324Z,88.42
2023-12-15T05:27:19.310Z,88.41
2023-12-15T05:29:21.135Z,88.56
2023-12-15T05:31:22.951Z,88.32
2023-12-15T05:33:25.472Z,88.65
2023-12-15T05:35:27.285Z,88.48
2023-12-15T05:37:28.965Z,88.33
2023-12-15T05:39:30.753Z,88.57
2023-12-15T05:41:32.553Z,88.81
2023-12-15T05:43:34.313Z,88.59
2023-12-15T05:45:36.004Z,88.34
2023-12-15T05:47:38.882Z,88.60
2023-12-15T05:49:41.695Z,88.67
2023-12-15T05:51:50.303Z,88.65
2023-12-15T05:53:57.542Z,88.74
2023-12-15T05:56:00.217Z,88.86
2023-12-15T05:58:02.304Z,88.86
2023-12-15T06:00:04.550Z,88.84
2023-12-15T06:02:06.721Z,89.00
2023-12-15T06:04:08.706Z,88.90
2023-12-15T06:06:13.865Z,88.61
2023-12-15T06:08:15.839Z,88.94
2023-12-15T06:10:17.634Z,88.83
2023-12-15T06:12:19.850Z,88.71
2023-12-15T06:14:24.625Z,88.82
2023-12-15T06:16:26.467Z,88.74
2023-12-15T06:18:28.388Z,88.71
2023-12-15T06:20:30.196Z,88.71
2023-12-15T06:22:31.917Z,88.64
2023-12-15T06:24:33.671Z,88.70
2023-12-15T06:26:35.438Z,88.64
2023-12-15T06:28:37.165Z,88.62
2023-12-15T06:30:39.097Z,88.56
2023-12-15T06:32:40.905Z,88.89
2023-12-15T06:34:45.791Z,88.65
2023-12-15T06:36:47.908Z,88.60
2023-12-15T06:38:49.638Z,88.54
2023-12-15T06:40:51.329Z,88.64
2023-12-15T06:42:53.067Z,88.72
2023-12-15T06:44:54.782Z,88.89
2023-12-15T06:46:56.501Z,88.70
2023-12-15T06:48:58.317Z,88.80
2023-12-15T06:51:00.064Z,88.52
2023-12-15T06:53:02.270Z,88.63
2023-12-15T06:55:04.874Z,88.47
2023-12-15T06:57:07.483Z,88.77
2023-12-15T06:59:09.208Z,88.64
2023-12-15T07:01:11.002Z,88.54
2023-12-15T07:03:12.836Z,88.51
2023-12-15T07:05:14.770Z,88.46
2023-12-15T07:07:16.470Z,88.62
2023-12-15T07:09:20.002Z,88.78
2023-12-15T07:11:22.569Z,88.50
2023-12-15T07:13:24.271Z,88.41
2023-12-15T07:15:29.182Z,88.56
2023-12-15T07:17:30.936Z,88.47
2023-12-15T07:19:32.729Z,88.24
2023-12-15T07:21:35.052Z,88.12
2023-12-15T07:23:37.026Z,88.19
2023-12-15T07:25:41.474Z,88.23
2023-12-15T07:27:43.269Z,88.31
2023-12-15T07:29:45.074Z,88.09
2023-12-15T07:31:46.837Z,88.43
2023-12-15T07:33:48.578Z,88.22
2023-12-15T07:35:50.424Z,88.23
2023-12-15T07:37:52.929Z,88.35
2023-12-15T07:39:56.062Z,88.12
2023-12-15T07:41:57.770Z,88.30
2023-12-15T07:44:00.068Z,88.07
2023-12-15T07:46:01.825Z,88.39
2023-12-15T07:48:04.174Z,88.09
2023-12-15T07:50:06.603Z,88.09
2023-12-15T07:52:08.755Z,88.13
2023-12-15T07:54:10.540Z,88.10
2023-12-15T07:56:20.421Z,88.17
2023-12-15T07:58:22.178Z,88.25
2023-12-15T08:00:24.156Z,88.20
2023-12-15T08:02:25.939Z,87.96
2023-12-15T08:04:29.404Z,88.08
2023-12-15T08:06:32.807Z,88.12
2023-12-15T08:08:34.554Z,87.76
2023-12-15T08:10:36.281Z,88.06
2023-12-15T08:12:38.020Z,87.91
2023-12-15T08:14:39.846Z,88.03
2023-12-15T08:16:41.677Z,87.96
2023-12-15T08:18:44.567Z,87.76
2023-12-15T08:20:48.671Z,87.76
2023-12-15T08:22:50.403Z,87.90
2023-12-15T08:24:52.156Z,87.78
2023-12-15T08:26:55.290Z,87.58
2023-12-15T08:28:57.451Z,87.91
2023-12-15T08:31:00.422Z,87.82
2023-12-15T08:33:03.162Z,87.79
2023-12-15T08:35:06.580Z,87.92
2023-12-15T08:37:08.941Z,87.67
2023-12-15T08:39:14.032Z,87.88
2023-12-15T08:41:17.400Z,87.52
2023-12-15T08:43:19.104Z,87.93
2023-12-15T08:45:20.947Z,87.73
2023-12-15T08:47:22.752Z,87.58
2023-12-15T08:49:24.602Z,87.54
2023-12-15T08:51:26.478Z,87.54
2023-12-15T08:53:28.288Z,87.52
2023-12-15T08:55:30.147Z,87.68
2023-12-15T08:57:32.080Z,87.56
2023-12-15T08:59:34.461Z,87.48
2023-12-15T09:01:36.291Z,87.41
2023-12-15T09:03:38.029Z,87.43
2023-12-15T09:06:01.172Z,87.37
2023-12-15T09:08:02.200Z,87.34
2023-12-15T09:10:04.278Z,87.24
2023-12-15T09:12:09.542Z,87.49
2023-12-15T09:14:11.418Z,87.06
2023-12-15T09:16:13.348Z,87.16
2023-12-15T09:18:15.733Z,86.96
2023-12-15T09:20:17.659Z,86.96
2023-12-15T09:22:19.512Z,87.06
2023-12-15T09:24:21.216Z,86.80
2023-12-15T09:26:23.069Z,86.65
2023-12-15T09:28:24.870Z,86.92
2023-12-15T09:30:26.679Z,86.57
2023-12-15T09:32:28.782Z,86.54
2023-12-15T09:34:30.626Z,86.55
2023-12-15T09:36:32.909Z,86.47
2023-12-15T09:38:34.690Z,86.04
2023-12-15T09:40:36.838Z,86.47
2023-12-15T09:42:38.820Z,86.18
2023-12-15T09:44:52.669Z,86.24
2023-12-15T09:47:02.777Z,86.24
2023-12-15T09:49:04.744Z,86.20
2023-12-15T09:51:15.005Z,86.09
2023-12-15T09:53:17.122Z,85.98
2023-12-15T09:55:19.968Z,85.80
2023-12-15T09:57:21.981Z,85.66
2023-12-15T09:59:23.894Z,85.65
2023-12-15T10:01:25.722Z,85.54
2023-12-15T10:03:27.489Z,85.37
2023-12-15T10:05:29.785Z,85.29
2023-12-15T10:07:31.512Z,84.99
2023-12-15T10:09:33.281Z,85.29
2023-12-15T10:11:35.353Z,85.07
2023-12-15T10:13:40.980Z,84.84
2023-12-15T10:15:42.732Z,85.05
2023-12-15T10:17:44.773Z,84.77
2023-12-15T10:19:47.065Z,84.51
2023-12-15T10:21:49.073Z,84.22
2023-12-15T10:23:50.845Z,84.02
2023-12-15T10:25:55.045Z,83.99
2023-12-15T10:27:56.760Z,83.79
2023-12-15T10:29:58.447Z,83.74
2023-12-15T10:32:00.392Z,83.58
2023-12-15T10:34:04.498Z,83.29
2023-12-15T10:36:08.605Z,83.30
2023-12-15T10:38:10.573Z,82.89
2023-12-15T10:40:13.007Z,82.90
2023-12-15T10:42:15.412Z,82.91
2023-12-15T10:44:17.198Z,83.05
2023-12-15T10:46:21.486Z,82.59
2023-12-15T10:48:26.351Z,82.47
2023-12-15T10:50:29.370Z,82.45
2023-12-15T10:52:35.111Z,82.43
2023-12-15T10:54:38.703Z,82.09
2023-12-15T10:56:40.522Z,81.96
2023-12-15T10:58:42.708Z,81.98
2023-12-15T11:00:44.654Z,81.84
2023-12-15T11:02:48.092Z,81.81
2023-12-15T11:04:50.540Z,81.76
2023-12-15T11:06:52.460Z,81.53
2023-12-15T11:08:54.424Z,81.08
2023-12-15T11:10:56.703Z,81.27
2023-12-15T11:12:58.442Z,81.45
2023-12-15T11:15:01.538Z,81.33
2023-12-15T11:17:03.384Z,81.33
2023-12-15T11:19:05.562Z,81.36
2023-12-15T11:21:12.880Z,81.30
2023-12-15T11:23:15.246Z,81.15
2023-12-15T11:25:28.474Z,81.06
2023-12-15T11:27:30.273Z,80.99
2023-12-15T11:29:36.843Z,81.07
2023-12-15T11:31:42.148Z,80.99
2023-12-15T11:33:44.435Z,80.78
2023-12-15T11:35:53.036Z,80.70
2023-12-15T11:37:54.785Z,80.65
2023-12-15T11:39:57.588Z,80.74
2023-12-15T11:42:01.224Z,80.56
2023-12-15T11:44:02.927Z,80.69
2023-12-15T11:46:05.448Z,80.92
2023-12-15T11:48:08.094Z,80.58
2023-12-15T11:50:10.152Z,80.63
2023-12-15T11:52:15.645Z,80.80
2023-12-15T11:54:17.435Z,81.00
2023-12-15T11:56:20.234Z,81.10
2023-12-15T11:58:23.553Z,80.66
2023-12-15T12:00:25.244Z,80.65
2023-12-15T12:02:27.150Z,80.74
2023-12-15T12:04:31.378Z,81.08
2023-12-15T12:06:34.014Z,80.83
2023-12-15T12:08:37.561Z,80.97
2023-12-15T12:10:40.958Z,81.00
2023-12-15T12:12:43.309Z,81.01
2023-12-15T12:14:45.126Z,81.19
2023-12-15T12:16:53.715Z,80.96
2023-12-15T12:18:57.203Z,81.10
2023-12-15T12:21:10.264Z,81.07
2023-12-15T12:23:12.072Z,81.17
2023-12-15T12:25:17.963Z,81.04
2023-12-15T12:27:19.827Z,81.02
2023-12-15T12:29:21.562Z,81.11
2023-12-15T12:31:23.323Z,80.89
2023-12-15T12:33:26.155Z,80.80
2023-12-15T12:35:28.047Z,80.70
2023-12-15T12:37:31.193Z,80.71
2023-12-15T12:39:32.868Z,80.89
2023-12-15T12:41:35.533Z,80.73
2023-12-15T12:43:37.260Z,80.83
2023-12-15T12:45:39.039Z,80.76
2023-12-15T12:47:43.037Z,80.51
2023-12-15T12:49:52.544Z,80.22
2023-12-15T12:51:54.998Z,80.55
2023-12-15T12:53:56.679Z,80.57
2023-12-15T12:55:58.353Z,80.36
2023-12-15T12:58:01.996Z,80.26
2023-12-15T13:00:11.067Z,80.13
2023-12-15T13:02:18.831Z,80.14
2023-12-15T13:04:23.398Z,80.27
2023-12-15T13:06:25.207Z,80.00
2023-12-15T13:08:27.084Z,80.02
2023-12-15T13:10:29.005Z,80.39
2023-12-15T13:12:30.710Z,80.04
2023-12-15T13:14:32.393Z,80.39
2023-12-15T13:16:34.231Z,80.31
2023-12-15T13:18:37.038Z,80.45
2023-12-15T13:20:40.506Z,80.13
2023-12-15T13:22:48.036Z,80.06
2023-12-15T13:24:57.591Z,79.98
2023-12-15T13:27:01.697Z,79.88
2023-12-15T13:29:05.168Z,80.06
2023-12-15T13:31:06.950Z,80.20
2023-12-15T13:33:08.862Z,80.11
2023-12-15T13:35:14.265Z,79.98
2023-12-15T13:37:16.534Z,79.69
2023-12-15T13:39:19.541Z,79.97
2023-12-15T13:41:21.631Z,79.83
2023-12-15T13:43:25.575Z,79.76
2023-12-15T13:45:27.404Z,79.69
2023-12-15T13:47:29.211Z,79.65
2023-12-15T13:49:31.101Z,79.53
2023-12-15T13:51:33.262Z,79.53
2023-12-15T13:53:35.082Z,79.61
2023-12-15T13:55:36.930Z,79.60
2023-12-15T13:57:38.953Z,79.67
2023-12-15T13:59:40.756Z,79.82
2023-12-15T14:01:42.482Z,79.70
2023-12-15T14:03:44.967Z,79.38
2023-12-15T14:05:46.839Z,79.19
2023-12-15T14:07:48.757Z,79.23
2023-12-15T14:09:50.452Z,79.29
2023-12-15T14:11:52.209Z,79.21
2023-12-15T14:13:54.012Z,79.04
2023-12-15T14:15:55.762Z,79.53
2023-12-15T14:18:10.007Z,79.37
2023-12-15T14:20:12.545Z,79.23
2023-12-15T14:22:15.718Z,79.15
2023-12-15T14:24:19.473Z,79.23
2023-12-15T14:26:21.406Z,79.19
2023-12-15T14:28:23.149Z,79.04
2023-12-15T14:30:24.967Z,79.25
2023-12-15T14:32:27.090Z,79.24
2023-12-15T14:34:29.083Z,79.34
2023-12-15T14:36:30.911Z,79.31
2023-12-15T14:38:33.404Z,79.34
2023-12-15T14:40:35.134Z,79.53
2023-12-15T14:42:37.405Z,79.59
2023-12-15T14:44:39.337Z,79.45
2023-12-15T14:46:41.533Z,79.55
2023-12-15T14:48:44.093Z,79.63
2023-12-15T14:50:47.063Z,79.60
2023-12-15T14:52:49.733Z,79.66
2023-12-15T14:54:51.632Z,79.83
2023-12-15T14:56:53.607Z,79.82
2023-12-15T14:58:55.386Z,79.63
2023-12-15T15:00:57.273Z,79.84
2023-12-15T15:02:59.062Z,79.93
2023-12-15T15:05:00.968Z,79.47
2023-12-15T15:07:04.809Z,79.96
2023-12-15T15:09:06.603Z,80.08
2023-12-15T15:11:08.395Z,80.17
2023-12-15T15:13:10.251Z,80.08
2023-12-15T15:15:12.116Z,80.23
2023-12-15T15:17:13.910Z,80.23
2023-12-15T15:19:15.912Z,80.38
2023-12-15T15:21:18.128Z,80.33
2023-12-15T15:23:19.924Z,80.32
2023-12-15T15:25:21.831Z,80.40
2023-12-15T15:27:23.529Z,80.43
2023-12-15T15:29:25.275Z,80.31
2023-12-15T15:31:27.157Z,80.30
2023-12-15T15:33:31.579Z,80.18
2023-12-15T15:35:33.483Z,80.42
2023-12-15T15:37:38.744Z,80.54
2023-12-15T15:39:40.585Z,80.51
2023-12-15T15:41:42.325Z,80.61
2023-12-15T15:43:44.055Z,80.51
2023-12-15T15:45:45.864Z,80.53
2023-12-15T15:47:55.710Z,80.71
2023-12-15T15:49:57.497Z,80.62
2023-12-15T15:51:59.280Z,80.51
2023-12-15T15:54:01.090Z,80.78
2023-12-15T15:56:02.869Z,80.69
2023-12-15T15:58:04.656Z,80.60
2023-12-15T16:00:09.552Z,80.74
2023-12-15T16:02:11.657Z,80.85
2023-12-15T16:04:13.878Z,80.92
2023-12-15T16:06:15.976Z,80.85
2023-12-15T16:08:18.451Z,80.93
2023-12-15T16:10:20.509Z,80.94
2023-12-15T16:12:22.430Z,81.03
2023-12-15T16:14:24.202Z,80.93
2023-12-15T16:16:25.999Z,81.04
2023-12-15T16:18:27.854Z,81.04
2023-12-15T16:20:29.613Z,81.15
2023-12-15T16:22:31.314Z,81.21
2023-12-15T16:24:33.022Z,81.36
2023-12-15T16:26:34.808Z,81.34
2023-12-15T16:28:36.574Z,81.52
2023-12-15T16:30:38.392Z,81.54
2023-12-15T16:32:41.350Z,81.80
2023-12-15T16:34:43.200Z,81.72
2023-12-15T16:36:44.936Z,82.00
2023-12-15T16:38:46.843Z,82.02
2023-12-15T16:40:48.946Z,82.03
2023-12-15T16:42:50.745Z,82.07
2023-12-15T16:44:52.623Z,82.07
2023-12-15T16:46:54.357Z,82.13
2023-12-15T16:48:56.804Z,82.05
2023-12-15T16:50:58.724Z,82.11
2023-12-15T16:53:00.408Z,81.98
2023-12-15T16:55:02.207Z,82.12
2023-12-15T16:57:05.104Z,81.67
2023-12-15T16:59:07.887Z,81.88
2023-12-15T17:01:09.714Z,81.79
2023-12-15T17:03:11.491Z,82.21
2023-12-15T17:05:13.419Z,82.23
2023-12-15T17:07:15.191Z,82.09
2023-12-15T17:09:17.519Z,82.24
2023-12-15T17:11:19.500Z,82.25
2023-12-15T17:13:21.245Z,82.29
2023-12-15T17:15:22.973Z,82.27
2023-12-15T17:17:24.850Z,82.31
2023-12-15T17:19:26.800Z,82.41
2023-12-15T17:21:29.028Z,82.67
2023-12-15T17:23:31.586Z,82.35
2023-12-15T17:25:33.528Z,82.58
2023-12-15T17:27:35.478Z,82.59
2023-12-15T17:29:44.360Z,82.67
2023-12-15T17:31:52.562Z,82.59
2023-12-15T17:33:54.636Z,82.76
2023-12-15T17:35:58.593Z,82.90
2023-12-15T17:38:00.386Z,82.77
2023-12-15T17:40:03.122Z,82.69
2023-12-15T17:42:04.949Z,82.81
2023-12-15T17:44:07.655Z,82.81
2023-12-15T17:46:09.499Z,82.80
2023-12-15T17:48:15.384Z,82.83
2023-12-15T17:50:17.321Z,82.94
2023-12-15T17:52:19.670Z,82.91
2023-12-15T17:54:21.500Z,82.81
2023-12-15T17:56:23.282Z,83.13
2023-12-15T17:58:25.104Z,82.93
2023-12-15T18:00:26.888Z,82.94
2023-12-15T18:02:28.586Z,83.22
2023-12-15T18:04:30.506Z,83.20
2023-12-15T18:06:32.457Z,83.22
2023-12-15T18:08:34.169Z,83.36
2023-12-15T18:10:36.004Z,83.17
2023-12-15T18:12:37.928Z,83.13
2023-12-15T18:14:41.887Z,83.27
2023-12-15T18:16:43.732Z,83.25
2023-12-15T18:18:45.542Z,83.39
2023-12-15T18:20:47.549Z,83.44
2023-12-15T18:22:49.364Z,83.47
2023-12-15T18:24:51.155Z,83.55
2023-12-15T18:26:52.857Z,83.60
2023-12-15T18:28:54.598Z,83.51
2023-12-15T18:30:56.438Z,83.65
2023-12-15T18:32:58.496Z,83.55
2023-12-15T18:35:00.454Z,83.83
2023-12-15T18:37:02.878Z,83.54
2023-12-15T18:39:06.407Z,83.66
2023-12-15T18:41:08.132Z,83.82
2023-12-15T18:43:10.037Z,83.71
2023-12-15T18:45:12.059Z,83.61
2023-12-15T18:47:13.760Z,83.46
2023-12-15T18:49:15.717Z,83.57
2023-12-15T18:51:19.480Z,83.51
2023-12-15T18:53:22.042Z,83.74
2023-12-15T18:55:24.106Z,83.74
2023-12-15T18:57:32.418Z,83.65
2023-12-15T18:59:38.112Z,83.70
2023-12-15T19:01:40.066Z,83.60
2023-12-15T19:03:42.429Z,83.54
2023-12-15T19:05:44.367Z,83.59
2023-12-15T19:07:48.655Z,83.48
2023-12-15T19:09:50.400Z,83.52
2023-12-15T19:11:53.788Z,83.50
2023-12-15T19:13:56.224Z,83.76
2023-12-15T19:15:58.089Z,83.24
2023-12-15T19:17:59.921Z,83.81
2023-12-15T19:20:01.864Z,83.70
2023-12-15T19:22:03.803Z,83.79
2023-12-15T19:24:08.349Z,83.78
2023-12-15T19:26:10.632Z,83.92
2023-12-15T19:28:12.605Z,83.86
2023-12-15T19:30:14.520Z,83.95
2023-12-15T19:32:16.281Z,83.93
2023-12-15T19:34:18.150Z,83.90
2023-12-15T19:36:20.193Z,84.14
2023-12-15T19:38:22.369Z,83.97
2023-12-15T19:40:24.257Z,84.24
2023-12-15T19:42:26.095Z,84.20
2023-12-15T19:44:28.910Z,84.27
2023-12-15T19:46:37.085Z,84.16
2023-12-15T19:48:38.957Z,84.26
2023-12-15T19:50:40.785Z,84.29
2023-12-15T19:52:44.991Z,84.39
2023-12-15T19:54:46.787Z,84.39
2023-12-15T19:56:48.569Z,84.44
2023-12-15T19:58:51.035Z,84.34
2023-12-15T20:00:53.843Z,84.46
2023-12-15T20:02:55.582Z,84.58
2023-12-15T20:05:00.708Z,84.59
2023-12-15T20:07:03.038Z,84.75
2023-12-15T20:09:05.823Z,84.54
2023-12-15T20:11:07.784Z,84.53
2023-12-15T20:13:09.516Z,84.59
2023-12-15T20:15:13.238Z,84.70
2023-12-15T20:17:15.162Z,84.89
2023-12-15T20:19:17.092Z,84.81
2023-12-15T20:21:19.371Z,84.95
2023-12-15T20:23:21.737Z,84.86
2023-12-15T20:25:23.500Z,84.88
2023-12-15T20:27:25.510Z,84.80
2023-12-15T20:29:27.355Z,85.15
2023-12-15T20:31:29.214Z,85.00
2023-12-15T20:33:31.557Z,85.13
2023-12-15T20:35:33.370Z,85.07
2023-12-15T20:37:35.215Z,85.09
2023-12-15T20:39:36.989Z,85.07
2023-12-15T20:41:38.678Z,84.98
2023-12-15T20:43:40.421Z,85.21
2023-12-15T20:45:42.729Z,85.32
2023-12-15T20:47:44.493Z,85.34
2023-12-15T20:49:46.331Z,85.30
2023-12-15T20:51:48.874Z,85.46
2023-12-15T20:53:50.756Z,85.10
2023-12-15T20:55:52.485Z,85.47
2023-12-15T20:57:54.248Z,85.48
2023-12-15T20:59:55.966Z,85.45
2023-12-15T21:01:57.794Z,85.32
2023-12-15T21:04:02.000Z,85.52
2023-12-15T21:06:03.990Z,85.33
2023-12-15T21:08:05.700Z,85.40
2023-12-15T21:10:08.406Z,85.36
2023-12-15T21:12:10.202Z,85.78
2023-12-15T21:14:11.906Z,85.48
2023-12-15T21:16:23.831Z,85.63
2023-12-15T21:18:25.790Z,85.50
2023-12-15T21:20:27.811Z,85.59
2023-12-15T21:22:29.562Z,85.68
2023-12-15T21:24:31.260Z,85.65
2023-12-15T21:26:33.418Z,85.51
2023-12-15T21:28:35.377Z,85.71
2023-12-15T21:30:37.107Z,85.53
2023-12-15T21:32:38.869Z,85.57
2023-12-15T21:34:41.163Z,85.42
2023-12-15T21:36:43.287Z,85.46
2023-12-15T21:38:45.063Z,85.54
2023-12-15T21:40:46.759Z,85.59
2023-12-15T21:42:48.530Z,85.43
2023-12-15T21:44:50.267Z,85.46
2023-12-15T21:46:52.016Z,85.66
2023-12-15T21:48:56.500Z,85.56
2023-12-15T21:50:58.334Z,85.85
2023-12-15T21:53:00.266Z,85.61
2023-12-15T21:55:02.216Z,85.70
2023-12-15T21:57:08.159Z,85.48
2023-12-15T21:59:10.006Z,85.42
2023-12-15T22:01:16.380Z,85.45
2023-12-15T22:03:19.200Z,85.29
2023-12-15T22:05:21.014Z,85.57
2023-12-15T22:07:22.770Z,85.35
2023-12-15T22:09:24.512Z,85.23
2023-12-15T22:11:29.343Z,85.46
2023-12-15T22:13:31.090Z,85.33
2023-12-15T22:15:32.807Z,85.44
2023-12-15T22:17:34.801Z,85.34
2023-12-15T22:19:36.845Z,85.51
2023-12-15T22:21:38.626Z,85.47
2023-12-15T22:23:44.839Z,85.42
2023-12-15T22:25:46.563Z,85.41
2023-12-15T22:27:48.308Z,85.30
2023-12-15T22:29:50.254Z,85.33
2023-12-15T22:31:52.081Z,85.34
2023-12-15T22:33:53.915Z,85.31
2023-12-15T22:35:55.706Z,85.06
2023-12-15T22:37:57.453Z,85.13
2023-12-15T22:40:01.634Z,85.29
2023-12-15T22:42:05.715Z,85.40
2023-12-15T22:44:07.471Z,85.25
2023-12-15T22:46:09.311Z,85.14
2023-12-15T22:48:11.974Z,85.45
2023-12-15T22:50:13.894Z,85.27
2023-12-15T22:52:15.709Z,85.44
2023-12-15T22:54:17.461Z,85.19
2023-12-15T22:56:19.261Z,85.02
2023-12-15T22:58:21.510Z,85.29
2023-12-15T23:00:30.641Z,85.17
2023-12-15T23:02:32.567Z,85.22
2023-12-15T23:04:34.438Z,85.14
2023-12-15T23:06:36.574Z,85.36
2023-12-15T23:08:38.338Z,85.31
2023-12-15T23:10:40.026Z,85.12
2023-12-15T23:12:41.751Z,85.43
2023-12-15T23:14:43.690Z,85.45
2023-12-15T23:16:45.498Z,85.42
2023-12-15T23:18:48.713Z,85.18
2023-12-15T23:20:50.722Z,85.26
2023-12-15T23:22:52.481Z,85.26
2023-12-15T23:24:54.253Z,85.07
2023-12-15T23:26:55.966Z,85.15
2023-12-15T23:28:57.834Z,85.27
2023-12-15T23:30:59.734Z,84.96
2023-12-15T23:33:01.555Z,84.76
2023-12-15T23:35:04.303Z,84.73
2023-12-15T23:37:06.322Z,84.90
2023-12-15T23:39:08.097Z,84.58
2023-12-15T23:41:10.031Z,84.45
2023-12-15T23:43:11.962Z,84.68
2023-12-15T23:45:13.882Z,84.64
2023-12-15T23:47:15.636Z,84.26
2023-12-15T23:49:17.727Z,84.41
2023-12-15T23:51:19.480Z,84.23
2023-12-15T23:53:21.207Z,84.31
2023-12-15T23:55:23.069Z,84.19
2023-12-15T23:57:24.844Z,84.10
2023-12-15T23:59:26.570Z,83.95
